Historyczne dane pomiarowe

Dodano dane terminowe – wersja testowa.

Dane z okresu 1951-2019

Wersja bazy: 1.34 [2019-03-16, lista zmian], aktualizacja planowana na 2019-04-15

Dane meteo z obszaru Polski uzyskane na podstawie danych udostępnionych przez Instytut Meteorologii i Gospodarki Wodnej – Państwowy Instytut Badawczy.

 

Wybierz Datę:    

       

TemperaturaWilgotnośćWiatrCiśnienieOpadyŚniegCzas trwania zjawisk
 Stacja t tx tn tng RH VA  wxwx mslp ppp RRR   cm mm wxwxwxwxwxwxwx
1958-05-15 8.3 12.5 4.5- 79.3- 7.3 12.7---- 11.0------------
1958-05-16 4.0 7.5 2.7- 97.0- 8.0 11.3---- 8.9------------
1958-05-17 -1.0 4.0 -3.1- 93.5- 5.3 12.0---- 0.2------------
1958-05-18 1.7 3.4 -3.7- 96.3- 8.0 16.0---- 5.7------------
1958-05-19 2.6 4.5 -0.3- 86.3- 4.3 8.7---- 0.0------------
1958-05-20 7.3 10.0 2.7- 80.5- 2.0 7.7---- 0.0------------
1958-05-21 9.0 14.6 3.3- 83.8- 3.7 10.3---- 46.2------------
1958-05-22 2.6 7.0 -1.2- 96.5- 8.0 5.0---- 2.7------------
1958-05-23 8.1 12.0 3.4- 95.0- 6.0 3.7---- 0.0------------
1958-05-24 9.8 14.5 5.5- 85.0- 4.3 4.7---- 0.0------------
1958-05-25 13.4 16.9 9.3- 61.5- 1.7 8.7---- 0.0------------
1958-05-26 11.9 16.2 10.3- 85.8- 4.7 12.3---- 2.0------------
1958-05-27 13.1 16.2 8.4- 84.5- 6.3 10.3---- 0.5------------
1958-05-28 7.5 14.1 3.3- 96.0- 6.3 13.3---- 6.4------------
1958-05-29 2.7 4.0 1.7- 97.0- 8.0 7.3---- 0.3------------
1958-05-30 6.1 8.4 1.1- 97.5- 8.0 8.7---- 12.1------------
1958-05-31 5.4 8.6 4.1- 97.0- 8.0 8.7---- 1.1------------
1958-06-01 6.6 9.1 3.5- 81.3- 2.0 5.7---- 0.0------------
1958-06-02 10.0 13.1 5.9- 76.8- 2.3 3.0---- 0.0------------
1958-06-03 11.3 13.1 8.9- 70.5- 7.3 3.0---- 2.4------------
1958-06-04 5.3 11.3 2.7- 95.3- 8.0 6.3---- 4.9------------
1958-06-05 2.3 4.5 -0.1- 96.0- 8.0 11.7---- 2.7------------
1958-06-06 1.6 2.5 -1.3- 60.5- 5.3 8.3---- 0.3------------
1958-06-07 7.0 10.0 0.1- 28.0- 0.3 3.7---- 0.0------------
1958-06-08 7.2 10.2 2.0- 87.8- 6.7 7.0---- 0.9------------
1958-06-09 5.1 7.6 3.2- 89.3- 7.0 7.7---- 3.1------------
1958-06-10 5.2 6.7 2.4- 92.3- 7.7 3.3---- 1.8------------
1958-06-11 1.2 5.3 -0.4- 96.0- 7.3 10.3---- 0.0------------
1958-06-12 0.7 3.0 -1.4- 91.0- 6.3 12.3---- 1.8------------
1958-06-13 1.6 4.7 -2.2- 74.3- 4.0 10.3---- 0.0------------
120.1 ms

 

Źródłem pochodzenia danych jest Instytut Meteorologii i Gospodarki Wodnej – Państwowy Instytut Badawczy. Dane Instytutu Meteorologii i Gospodarki Wodnej – Państwowego Instytutu Badawczego zostały przetworzone.

Dane źródłowe można odnaleźć na stronie https://dane.imgw.pl